Time;durP1;ratioP1;P1;durP2;ratioP2;P2;SDS_P1;SDS_P2;PMS_P1;PMS_P2;Temp;Humidity;BMP_temperature;BMP_pressure;BME280_temperature;BME280_humidity;BME280_pressure;Samples;Min_cycle;Max_cycle;Signal;HPM_P1;HPM_P2
2022/11/14 00:00:40;;;;;;;50.15;20.77;;;14.00;61.60;;;;;;5031884;28;20033;-85
2022/11/14 00:03:07;;;;;;;35.80;22.15;;;13.60;61.50;;;;;;5029575;28;20481;-81
2022/11/14 00:05:42;;;;;;;32.85;20.40;;;12.70;64.60;;;;;;5053575;28;20032;-87
2022/11/14 00:08:18;;;;;;;52.30;24.83;;;12.50;65.20;;;;;;5035898;28;20021;-84
2022/11/14 00:10:48;;;;;;;44.22;22.92;;;12.70;65.20;;;;;;5034312;28;20024;-86
2022/11/14 00:13:15;;;;;;;66.30;25.80;;;13.10;64.60;;;;;;5035564;28;20025;-82
2022/11/14 00:15:41;;;;;;;88.35;26.48;;;13.20;64.40;;;;;;5031993;28;20083;-82
2022/11/14 00:18:07;;;;;;;46.28;23.73;;;13.30;63.60;;;;;;5018495;28;20030;-82
2022/11/14 00:20:33;;;;;;;32.97;20.95;;;13.20;64.20;;;;;;5021423;28;20118;-83
2022/11/14 00:22:59;;;;;;;43.88;21.25;;;12.70;66.10;;;;;;5030466;28;20021;-84
2022/11/14 00:25:24;;;;;;;46.50;21.73;;;12.80;64.90;;;;;;5016308;28;20038;-85
2022/11/14 00:27:50;;;;;;;44.63;21.35;;;12.70;66.30;;;;;;5015304;28;20021;-83
2022/11/14 00:30:16;;;;;;;41.60;21.98;;;12.70;66.10;;;;;;5045281;28;20497;-81
2022/11/14 00:32:41;;;;;;;38.03;20.58;;;13.10;65.30;;;;;;5035937;28;20480;-83
2022/11/14 00:35:10;;;;;;;43.70;21.17;;;13.50;64.50;;;;;;5023298;28;20025;-83
2022/11/14 00:37:36;;;;;;;37.55;20.88;;;13.90;63.10;;;;;;5025569;28;20026;-80
2022/11/14 00:40:02;;;;;;;43.28;21.40;;;14.00;62.50;;;;;;5019096;28;20037;-86
2022/11/14 00:42:27;;;;;;;33.88;19.20;;;14.20;62.40;;;;;;5019486;28;20436;-81
2022/11/14 00:44:53;;;;;;;31.63;17.38;;;14.40;62.00;;;;;;5036353;28;20761;-80
2022/11/14 00:47:19;;;;;;;30.67;19.02;;;14.40;61.30;;;;;;5035641;28;20478;-86
2022/11/14 00:49:44;;;;;;;38.65;18.67;;;14.30;61.70;;;;;;5039060;28;20032;-82
2022/11/14 00:52:10;;;;;;;35.50;19.73;;;13.70;63.30;;;;;;5038525;28;20029;-81
2022/11/14 00:54:36;;;;;;;36.42;19.08;;;13.50;63.70;;;;;;5035173;28;20025;-83
2022/11/14 00:57:01;;;;;;;38.65;19.20;;;13.40;64.70;;;;;;5037023;28;20029;-83
2022/11/14 00:59:27;;;;;;;35.53;20.08;;;13.70;64.50;;;;;;5019029;28;20026;-82
2022/11/14 01:01:53;;;;;;;36.35;18.75;;;14.00;63.50;;;;;;5032640;28;20025;-83
2022/11/14 01:04:18;;;;;;;37.85;20.02;;;14.20;62.40;;;;;;5055914;28;20115;-82
2022/11/14 01:06:44;;;;;;;31.85;17.83;;;13.80;63.80;;;;;;5037081;28;20028;-85
2022/11/14 01:09:09;;;;;;;37.42;20.80;;;13.80;64.30;;;;;;5018716;28;20080;-84
2022/11/14 01:11:35;;;;;;;41.15;20.35;;;14.10;63.70;;;;;;5018739;28;20033;-82
2022/11/14 01:14:01;;;;;;;50.67;21.38;;;14.50;62.80;;;;;;5042363;28;20029;-85
2022/11/14 01:16:26;;;;;;;33.63;18.80;;;14.80;62.20;;;;;;5020955;28;20041;-84
2022/11/14 01:18:52;;;;;;;52.60;22.25;;;15.00;61.50;;;;;;5034508;28;20036;-81
2022/11/14 01:21:18;;;;;;;42.47;21.23;;;15.10;62.20;;;;;;5037207;28;20033;-82
2022/11/14 01:23:43;;;;;;;46.72;20.33;;;15.20;61.50;;;;;;5052030;28;20025;-83
2022/11/14 01:26:11;;;;;;;31.92;16.90;;;15.20;61.00;;;;;;5036937;28;20083;-85
2022/11/14 01:28:38;;;;;;;40.75;20.25;;;15.30;60.10;;;;;;5050923;28;20120;-81
2022/11/14 01:31:19;;;;;;;44.58;22.13;;;15.00;62.40;;;;;;5040553;28;20472;-81
2022/11/14 01:33:48;;;;;;;49.55;22.92;;;15.10;61.70;;;;;;5055387;28;20032;-81
2022/11/14 01:36:14;;;;;;;95.80;24.65;;;15.20;61.30;;;;;;5051980;28;20028;-80
2022/11/14 01:38:39;;;;;;;42.00;19.67;;;15.10;61.70;;;;;;5050672;28;20033;-81
2022/11/14 01:41:05;;;;;;;46.38;20.92;;;15.00;61.00;;;;;;5035015;28;20041;-80
2022/11/14 01:43:34;;;;;;;54.47;20.70;;;15.20;60.90;;;;;;5053676;28;20040;-82
2022/11/14 01:46:03;;;;;;;74.95;22.67;;;15.20;60.90;;;;;;5050642;28;20032;-80
2022/11/14 01:48:40;;;;;;;48.33;19.33;;;15.10;61.30;;;;;;5052296;28;20432;-82
2022/11/14 01:51:23;;;;;;;87.32;22.58;;;15.00;61.00;;;;;;5053473;28;20072;-81
2022/11/14 01:53:53;;;;;;;82.00;21.60;;;15.00;61.20;;;;;;5034282;28;20028;-80
2022/11/14 01:56:25;;;;;;;58.72;19.88;;;15.10;60.80;;;;;;5036629;28;20030;-85
2022/11/14 01:58:55;;;;;;;46.30;21.45;;;15.20;60.60;;;;;;5039791;28;20029;-80
2022/11/14 02:01:21;;;;;;;38.20;18.35;;;15.20;60.70;;;;;;5037350;28;20029;-86
2022/11/14 02:03:50;;;;;;;46.65;20.25;;;15.20;60.60;;;;;;5044279;28;20032;-82
2022/11/14 02:06:19;;;;;;;61.38;21.80;;;15.30;60.20;;;;;;5051528;28;20021;-83
2022/11/14 02:08:46;;;;;;;45.75;17.02;;;15.10;60.80;;;;;;5053845;28;20025;-81
2022/11/14 02:11:12;;;;;;;43.38;17.85;;;15.10;60.30;;;;;;5053544;28;20033;-81
2022/11/14 02:13:38;;;;;;;50.05;18.42;;;14.50;61.60;;;;;;5053775;28;20535;-84
2022/11/14 02:16:05;;;;;;;41.65;19.20;;;14.30;62.80;;;;;;5049959;28;20112;-82
2022/11/14 02:18:30;;;;;;;30.83;16.15;;;14.40;62.40;;;;;;5044102;28;20032;-82
2022/11/14 02:20:56;;;;;;;47.03;17.10;;;14.40;61.40;;;;;;5048875;28;20032;-83
2022/11/14 02:23:31;;;;;;;40.97;18.30;;;13.50;64.50;;;;;;5059617;28;20381;-80
2022/11/14 02:25:58;;;;;;;48.13;17.77;;;13.50;64.60;;;;;;5043035;28;20625;-82
2022/11/14 02:28:25;;;;;;;44.38;17.65;;;13.70;64.20;;;;;;5034292;28;20037;-81
2022/11/14 02:30:50;;;;;;;41.63;20.33;;;13.70;63.70;;;;;;5046536;28;20481;-81
2022/11/14 02:33:16;;;;;;;37.20;19.17;;;13.50;64.70;;;;;;5033018;28;20029;-80
2022/11/14 02:35:42;;;;;;;29.98;16.92;;;13.80;64.20;;;;;;5049123;28;20025;-82
2022/11/14 02:38:08;;;;;;;31.42;15.52;;;14.10;63.00;;;;;;5040184;28;20033;-83
2022/11/14 02:40:33;;;;;;;30.58;16.08;;;13.80;62.90;;;;;;5044644;28;20029;-82
2022/11/14 02:42:59;;;;;;;22.40;13.80;;;13.70;63.30;;;;;;5039287;28;20470;-82
2022/11/14 02:45:25;;;;;;;21.55;13.65;;;13.50;62.70;;;;;;5047648;28;20025;-81
2022/11/14 02:47:51;;;;;;;28.98;16.15;;;13.00;64.20;;;;;;5033847;28;20369;-82
2022/11/14 02:50:17;;;;;;;34.53;16.88;;;13.00;65.10;;;;;;5066324;28;20033;-80
2022/11/14 02:52:43;;;;;;;30.95;16.02;;;13.40;64.60;;;;;;5039388;28;20417;-82
2022/11/14 02:55:09;;;;;;;29.83;16.63;;;13.90;62.90;;;;;;5032965;28;20057;-82
2022/11/14 02:57:34;;;;;;;24.00;14.27;;;14.30;61.80;;;;;;5041933;28;20488;-86
2022/11/14 03:00:00;;;;;;;31.92;17.17;;;14.00;62.40;;;;;;5041465;28;20037;-80
2022/11/14 03:02:26;;;;;;;24.13;15.00;;;13.60;63.70;;;;;;5046194;28;20068;-85
2022/11/14 03:04:52;;;;;;;27.35;15.00;;;13.80;62.90;;;;;;5041831;28;20035;-82
2022/11/14 03:07:17;;;;;;;23.58;13.85;;;14.00;62.50;;;;;;5046904;28;20402;-85
2022/11/14 03:09:43;;;;;;;22.58;12.75;;;14.10;61.80;;;;;;5044100;28;20025;-86
2022/11/14 03:12:09;;;;;;;24.10;13.93;;;13.10;63.70;;;;;;5049991;28;20064;-81
2022/11/14 03:14:35;;;;;;;23.50;14.82;;;12.50;65.10;;;;;;5039770;28;20548;-85
2022/11/14 03:17:01;;;;;;;35.78;15.77;;;12.60;65.20;;;;;;5032902;28;20079;-82
2022/11/14 03:19:26;;;;;;;32.63;14.88;;;12.60;65.50;;;;;;5033002;28;20053;-81
2022/11/14 03:21:52;;;;;;;30.77;15.40;;;12.90;64.30;;;;;;5040878;28;20540;-82
2022/11/14 03:24:18;;;;;;;30.05;16.58;;;12.90;64.40;;;;;;5053793;28;20528;-81
2022/11/14 03:26:44;;;;;;;29.65;15.90;;;13.10;64.00;;;;;;5051788;28;20037;-81
2022/11/14 03:29:09;;;;;;;21.50;13.20;;;13.10;64.20;;;;;;5052921;28;20163;-82
2022/11/14 03:31:35;;;;;;;21.83;13.40;;;12.70;64.40;;;;;;5052203;28;20056;-83
2022/11/14 03:34:01;;;;;;;28.83;16.00;;;12.50;65.80;;;;;;5052801;28;20021;-85
2022/11/14 03:36:26;;;;;;;32.95;17.27;;;12.60;66.00;;;;;;5047027;28;20393;-82
2022/11/14 03:38:52;;;;;;;23.10;14.13;;;13.00;65.20;;;;;;5032599;28;20116;-86
2022/11/14 03:41:18;;;;;;;28.92;15.95;;;13.30;63.10;;;;;;5032268;28;20045;-84
2022/11/14 03:43:43;;;;;;;20.17;12.93;;;12.80;64.80;;;;;;5033662;28;20018;-83
2022/11/14 03:46:09;;;;;;;38.30;15.20;;;12.40;66.00;;;;;;5033623;28;20025;-81
2022/11/14 03:48:35;;;;;;;27.73;15.13;;;12.10;67.00;;;;;;5032435;28;20017;-81
2022/11/14 03:51:00;;;;;;;26.23;15.43;;;11.80;68.20;;;;;;5033580;28;20029;-84
2022/11/14 03:53:27;;;;;;;28.85;16.17;;;12.20;67.30;;;;;;5048435;28;20743;-81
2022/11/14 03:55:52;;;;;;;40.17;18.15;;;12.20;67.40;;;;;;5052402;28;20115;-80
2022/11/14 03:58:18;;;;;;;26.23;15.15;;;12.50;66.70;;;;;;5052478;28;20112;-84
2022/11/14 04:00:44;;;;;;;26.35;15.35;;;12.60;66.00;;;;;;5052358;28;20116;-82
2022/11/14 04:03:10;;;;;;;31.27;16.50;;;13.00;65.60;;;;;;5054132;28;20087;-80
2022/11/14 04:05:35;;;;;;;29.02;17.13;;;13.50;64.20;;;;;;5060018;28;20720;-85
2022/11/14 04:08:04;;;;;;;29.98;16.60;;;13.90;62.70;;;;;;5054786;28;20030;-81
2022/11/14 04:10:30;;;;;;;28.20;16.05;;;14.20;62.10;;;;;;5047311;28;20079;-81
2022/11/14 04:12:56;;;;;;;26.80;14.43;;;14.40;61.40;;;;;;5039802;28;20038;-86
2022/11/14 04:15:21;;;;;;;32.13;16.80;;;14.30;60.90;;;;;;5039682;28;20036;-86
2022/11/14 04:17:47;;;;;;;28.30;16.73;;;14.40;61.00;;;;;;5042847;28;20588;-84
2022/11/14 04:20:14;;;;;;;21.80;13.88;;;14.50;60.40;;;;;;5038301;28;20431;-82
2022/11/14 04:22:40;;;;;;;20.27;13.02;;;14.50;60.40;;;;;;5039352;28;20024;-85
2022/11/14 04:25:07;;;;;;;20.20;11.90;;;14.10;60.10;;;;;;5039952;28;20029;-84
2022/11/14 04:27:33;;;;;;;23.20;13.93;;;13.40;61.60;;;;;;5048859;28;20028;-80
2022/11/14 04:29:59;;;;;;;22.58;13.35;;;13.00;62.70;;;;;;5054644;28;20033;-81
2022/11/14 04:32:25;;;;;;;26.33;14.93;;;12.90;63.30;;;;;;5051208;28;20060;-81
2022/11/14 04:34:50;;;;;;;25.67;14.68;;;13.10;63.10;;;;;;5038292;28;20079;-83
2022/11/14 04:37:16;;;;;;;23.83;14.02;;;13.60;61.70;;;;;;5038410;28;20382;-82
2022/11/14 04:39:41;;;;;;;20.65;13.30;;;13.80;61.20;;;;;;5038677;28;20512;-85
2022/11/14 04:42:07;;;;;;;23.45;14.05;;;13.80;61.40;;;;;;5038069;28;20291;-80
2022/11/14 04:44:33;;;;;;;24.00;13.48;;;13.90;60.80;;;;;;5039374;28;20048;-84
2022/11/14 04:46:58;;;;;;;19.33;11.43;;;14.10;60.10;;;;;;5050778;28;20070;-84
2022/11/14 04:49:24;;;;;;;18.65;11.43;;;14.10;59.60;;;;;;5058484;28;20475;-81
2022/11/14 04:51:50;;;;;;;20.85;12.95;;;13.30;61.50;;;;;;5053049;28;20028;-81
2022/11/14 04:54:15;;;;;;;19.35;11.70;;;13.30;61.60;;;;;;5047717;28;20504;-83
2022/11/14 04:56:41;;;;;;;22.63;13.32;;;12.90;62.10;;;;;;5038004;28;20022;-85
2022/11/14 04:59:07;;;;;;;17.50;11.27;;;12.60;63.40;;;;;;5057463;28;20025;-81
2022/11/14 05:01:32;;;;;;;18.80;11.13;;;12.50;63.10;;;;;;5054820;28;20034;-80
2022/11/14 05:03:58;;;;;;;20.23;11.85;;;11.90;64.70;;;;;;5044714;28;20048;-81
2022/11/14 05:06:24;;;;;;;28.63;13.38;;;11.50;67.00;;;;;;5054457;28;20052;-85
2022/11/14 05:08:49;;;;;;;26.67;12.43;;;12.00;66.10;;;;;;5039793;28;20381;-83
2022/11/14 05:11:16;;;;;;;20.85;12.50;;;12.10;65.40;;;;;;5041281;28;20033;-82
2022/11/14 05:13:42;;;;;;;24.98;13.45;;;12.10;65.20;;;;;;5057406;28;20021;-82
2022/11/14 05:16:08;;;;;;;88.97;14.32;;;12.20;65.90;;;;;;5055972;28;20024;-85
2022/11/14 05:18:34;;;;;;;58.42;14.73;;;12.10;65.40;;;;;;5041172;28;20029;-83
2022/11/14 05:21:00;;;;;;;41.72;15.07;;;12.40;65.20;;;;;;5035310;28;20504;-82
2022/11/14 05:23:26;;;;;;;68.57;16.30;;;12.70;63.90;;;;;;5049931;28;20108;-85
2022/11/14 05:26:07;;;;;;;56.28;15.43;;;13.00;63.10;;;;;;5053961;28;20367;-84
2022/11/14 05:28:33;;;;;;;;;;;13.30;62.10;;;;;;5048940;28;20036;-83
2022/11/14 05:31:02;;;;;;;60.70;15.50;;;13.30;61.80;;;;;;5051421;28;19920;-87
2022/11/14 05:33:29;;;;;;;47.28;15.95;;;13.40;61.80;;;;;;5044622;28;20562;-83
2022/11/14 05:35:54;;;;;;;56.85;16.10;;;13.40;61.40;;;;;;5035604;28;20041;-85
2022/11/14 05:38:20;;;;;;;45.90;16.58;;;13.50;61.30;;;;;;5036875;28;20036;-82
2022/11/14 05:40:45;;;;;;;44.25;16.30;;;13.70;61.40;;;;;;5054039;28;20040;-86
2022/11/14 05:43:11;;;;;;;39.38;16.23;;;13.80;60.90;;;;;;5034878;28;20129;-86
2022/11/14 05:45:37;;;;;;;58.72;15.43;;;13.90;60.50;;;;;;5040359;28;20067;-81
2022/11/14 05:48:02;;;;;;;93.50;15.65;;;14.00;60.50;;;;;;5045835;28;20111;-83
2022/11/14 05:50:28;;;;;;;73.65;14.55;;;13.90;60.40;;;;;;5036106;28;20084;-82
2022/11/14 05:52:55;;;;;;;71.80;16.70;;;13.90;60.50;;;;;;5035427;28;20018;-81
2022/11/14 05:55:21;;;;;;;76.38;16.92;;;13.80;60.90;;;;;;5045178;28;20036;-83
2022/11/14 05:57:47;;;;;;;61.95;16.50;;;13.90;60.70;;;;;;5045151;28;20022;-80
2022/11/14 06:00:13;;;;;;;37.13;15.18;;;14.00;60.30;;;;;;5050747;28;20048;-80
2022/11/14 06:02:39;;;;;;;27.85;14.32;;;14.10;60.40;;;;;;5050699;28;20025;-84
2022/11/14 06:05:04;;;;;;;26.38;15.90;;;14.10;59.70;;;;;;5034762;28;20029;-84
2022/11/14 06:07:30;;;;;;;22.95;13.80;;;14.20;59.60;;;;;;5050782;28;20469;-81
2022/11/14 06:09:56;;;;;;;21.83;13.65;;;14.20;59.10;;;;;;5035481;28;20164;-81
2022/11/14 06:12:21;;;;;;;19.52;13.05;;;14.10;59.10;;;;;;5034924;28;20477;-85
2022/11/14 06:14:47;;;;;;;21.80;15.23;;;13.60;59.30;;;;;;5050483;28;20470;-85
2022/11/14 06:17:13;;;;;;;28.08;18.58;;;12.90;61.30;;;;;;5060053;28;20575;-82
2022/11/14 06:19:38;;;;;;;28.00;18.48;;;12.80;61.20;;;;;;5037370;28;20031;-84
2022/11/14 06:22:04;;;;;;;23.95;14.07;;;12.70;61.60;;;;;;5054366;28;20033;-83
2022/11/14 06:24:30;;;;;;;18.70;10.93;;;12.90;61.50;;;;;;5053424;28;20048;-82
2022/11/14 06:26:55;;;;;;;19.13;12.07;;;13.10;60.60;;;;;;5054798;28;20021;-81
2022/11/14 06:29:21;;;;;;;18.13;11.85;;;13.20;60.10;;;;;;5036926;28;20028;-82
2022/11/14 06:31:46;;;;;;;21.30;12.27;;;13.30;59.60;;;;;;5032043;28;20053;-81
2022/11/14 06:34:12;;;;;;;33.55;14.35;;;13.30;59.40;;;;;;5056696;28;20025;-86
2022/11/14 06:36:38;;;;;;;26.38;14.43;;;13.30;60.00;;;;;;5055543;28;20021;-82
2022/11/14 06:39:04;;;;;;;33.50;15.27;;;13.50;59.40;;;;;;5054243;28;20036;-82
2022/11/14 06:41:29;;;;;;;24.15;13.15;;;13.60;59.40;;;;;;5036638;28;20458;-84
2022/11/14 06:43:55;;;;;;;41.92;15.07;;;13.70;59.10;;;;;;5054061;28;20512;-80
2022/11/14 06:46:22;;;;;;;70.70;14.95;;;13.60;59.60;;;;;;5053441;28;20435;-81
2022/11/14 06:48:49;;;;;;;29.88;13.32;;;13.50;59.20;;;;;;5036608;28;20068;-81
2022/11/14 06:51:15;;;;;;;35.97;14.25;;;13.50;59.60;;;;;;5040957;28;20511;-80
2022/11/14 06:53:42;;;;;;;50.40;13.45;;;13.60;59.80;;;;;;5040417;28;20496;-84
2022/11/14 06:56:14;;;;;;;30.58;12.35;;;13.70;59.30;;;;;;5066171;28;20056;-81
2022/11/14 06:58:45;;;;;;;29.67;16.90;;;13.80;59.50;;;;;;5037290;28;20424;-86
2022/11/14 07:01:16;;;;;;;35.53;18.23;;;13.50;59.40;;;;;;5037428;28;20033;-80
2022/11/14 07:03:43;;;;;;;29.73;16.38;;;12.80;61.60;;;;;;5058147;28;20021;-82
2022/11/14 07:06:11;;;;;;;24.08;16.42;;;12.50;62.20;;;;;;5054125;28;20473;-80
2022/11/14 07:08:37;;;;;;;25.13;14.73;;;12.20;63.00;;;;;;5054343;28;20033;-84
2022/11/14 07:11:08;;;;;;;38.60;15.18;;;11.60;65.00;;;;;;5058871;28;20074;-86
2022/11/14 07:13:34;;;;;;;21.23;14.48;;;11.50;66.50;;;;;;5051023;28;20449;-84
2022/11/14 07:16:00;;;;;;;19.27;12.55;;;11.80;64.70;;;;;;5035802;28;20035;-84
2022/11/14 07:18:28;;;;;;;23.42;14.55;;;11.90;64.70;;;;;;5036170;28;20127;-85
2022/11/14 07:21:04;;;;;;;25.58;16.52;;;12.10;64.80;;;;;;5062146;28;20037;-81
2022/11/14 07:23:31;;;;;;;39.28;20.27;;;12.30;63.10;;;;;;5035761;28;20064;-83
2022/11/14 07:26:07;;;;;;;31.52;17.85;;;12.30;64.20;;;;;;5040185;28;20028;-81
2022/11/14 07:28:34;;;;;;;27.25;15.68;;;12.70;62.90;;;;;;5035725;28;20033;-84
2022/11/14 07:31:06;;;;;;;29.95;15.23;;;12.80;62.70;;;;;;5035332;28;20044;-80
2022/11/14 07:33:32;;;;;;;31.85;15.63;;;13.20;62.30;;;;;;5045674;28;20392;-86
2022/11/14 07:35:58;;;;;;;34.25;15.65;;;13.20;63.00;;;;;;5053089;28;20095;-81
2022/11/14 07:38:25;;;;;;;22.58;13.88;;;13.70;61.80;;;;;;5040298;28;20029;-83
2022/11/14 07:40:57;;;;;;;29.98;18.20;;;13.80;61.50;;;;;;5039643;28;20028;-84
2022/11/14 07:43:23;;;;;;;24.85;15.73;;;13.90;61.60;;;;;;5046042;28;20385;-81
2022/11/14 07:45:49;;;;;;;29.38;18.63;;;14.40;60.60;;;;;;5053762;28;20032;-81
2022/11/14 07:48:16;;;;;;;21.98;14.63;;;14.90;59.90;;;;;;5053115;28;20033;-87
2022/11/14 07:50:41;;;;;;;20.35;12.90;;;15.00;59.40;;;;;;5035396;28;20397;-82
2022/11/14 07:53:07;;;;;;;23.80;14.82;;;15.20;58.90;;;;;;5045734;28;20545;-85
2022/11/14 07:55:37;;;;;;;22.52;14.15;;;15.30;59.30;;;;;;5054409;28;20480;-84
2022/11/14 07:58:03;;;;;;;24.38;13.75;;;15.70;58.50;;;;;;5052215;28;20036;-81
2022/11/14 08:00:29;;;;;;;23.38;14.93;;;15.70;58.00;;;;;;5051572;28;20116;-84
2022/11/14 08:02:55;;;;;;;22.65;14.60;;;15.80;58.70;;;;;;5049881;28;20563;-85
2022/11/14 08:05:21;;;;;;;23.13;13.77;;;15.90;57.50;;;;;;5052511;28;20071;-85
2022/11/14 08:07:50;;;;;;;23.98;14.65;;;15.70;58.00;;;;;;5052214;28;20467;-84
2022/11/14 08:10:17;;;;;;;40.10;17.55;;;15.10;58.90;;;;;;5053302;28;20045;-86
2022/11/14 08:12:44;;;;;;;20.77;13.48;;;14.60;60.10;;;;;;5038109;28;20435;-85
2022/11/14 08:15:12;;;;;;;20.70;13.40;;;14.70;60.50;;;;;;5035475;28;20047;-82
2022/11/14 08:17:38;;;;;;;26.30;16.48;;;14.50;61.60;;;;;;5027389;28;20385;-83
2022/11/14 08:20:05;;;;;;;22.80;13.95;;;14.40;61.50;;;;;;5034177;28;20491;-84
2022/11/14 08:22:31;;;;;;;21.08;13.93;;;14.50;61.80;;;;;;5015358;28;20021;-81
2022/11/14 08:24:57;;;;;;;19.33;12.55;;;15.10;60.90;;;;;;5015724;28;20039;-89
2022/11/14 08:27:23;;;;;;;20.60;13.45;;;15.40;59.90;;;;;;5016049;28;20485;-84
2022/11/14 08:29:50;;;;;;;24.45;14.43;;;15.50;59.40;;;;;;5031699;28;20128;-81
2022/11/14 08:32:16;;;;;;;20.08;13.02;;;15.80;59.40;;;;;;5018412;28;20064;-82
2022/11/14 08:34:42;;;;;;;22.42;14.02;;;16.20;58.20;;;;;;5035994;28;20024;-84
2022/11/14 08:37:07;;;;;;;26.60;16.30;;;16.20;58.60;;;;;;5029674;28;20032;-85
2022/11/14 08:39:33;;;;;;;23.42;15.23;;;16.50;58.60;;;;;;5055919;28;20080;-83
2022/11/14 08:41:59;;;;;;;20.00;13.25;;;16.20;58.60;;;;;;5072525;28;20515;-85
2022/11/14 08:44:24;;;;;;;20.27;12.20;;;16.20;58.50;;;;;;5071530;28;20021;-83
2022/11/14 08:46:50;;;;;;;24.63;12.40;;;15.70;59.20;;;;;;5070855;28;20101;-82
2022/11/14 08:49:16;;;;;;;19.55;13.10;;;14.90;61.20;;;;;;5052671;28;20056;-83
2022/11/14 08:51:41;;;;;;;25.90;16.55;;;14.50;63.00;;;;;;5056278;28;20028;-82
2022/11/14 08:54:07;;;;;;;25.27;16.67;;;15.30;62.60;;;;;;5056814;28;20016;-84
2022/11/14 08:56:33;;;;;;;26.40;17.63;;;16.60;60.30;;;;;;5055769;28;20059;-84
2022/11/14 08:59:01;;;;;;;23.85;16.42;;;17.80;58.40;;;;;;5056438;28;20372;-83
2022/11/14 09:01:27;;;;;;;30.77;18.80;;;19.20;55.90;;;;;;5056091;28;20044;-88
2022/11/14 09:03:52;;;;;;;26.15;18.20;;;20.30;54.20;;;;;;5074493;28;20032;-82
2022/11/14 09:06:18;;;;;;;23.45;17.08;;;21.60;52.60;;;;;;5056618;28;20036;-83
2022/11/14 09:08:43;;;;;;;24.27;15.95;;;22.60;50.60;;;;;;5057162;28;20025;-83
2022/11/14 09:11:09;;;;;;;20.25;14.45;;;23.40;49.80;;;;;;5058096;28;20029;-88
2022/11/14 09:13:35;;;;;;;21.40;15.25;;;23.50;49.30;;;;;;5058286;28;20028;-90
2022/11/14 09:16:01;;;;;;;24.65;17.13;;;23.30;49.30;;;;;;5058372;28;20035;-85
2022/11/14 09:18:28;;;;;;;22.00;14.77;;;23.50;49.90;;;;;;5058663;28;20107;-88
2022/11/14 09:20:59;;;;;;;19.23;13.70;;;23.90;49.30;;;;;;5058022;28;20123;-83
2022/11/14 09:23:25;;;;;;;21.42;14.43;;;24.50;49.10;;;;;;5058369;28;20028;-84
2022/11/14 09:25:51;;;;;;;19.63;14.02;;;25.40;48.00;;;;;;5058433;28;20074;-89
2022/11/14 09:28:16;;;;;;;22.25;14.05;;;25.90;47.90;;;;;;5058138;28;20031;-82
2022/11/14 09:30:42;;;;;;;18.65;12.10;;;26.50;47.10;;;;;;5064990;28;20055;-87
2022/11/14 09:33:08;;;;;;;17.65;11.88;;;26.70;47.10;;;;;;5075481;28;20067;-83
2022/11/14 09:35:35;;;;;;;21.17;13.55;;;27.10;46.60;;;;;;5074197;28;20040;-82
2022/11/14 09:38:03;;;;;;;17.73;12.23;;;27.50;46.80;;;;;;5074597;28;20071;-84
2022/11/14 09:40:38;;;;;;;17.33;12.65;;;27.90;45.60;;;;;;5074674;28;20040;-83
2022/11/14 09:43:52;;;;;;;20.27;13.20;;;27.50;45.90;;;;;;5075205;28;20102;-84
2022/11/14 09:46:24;;;;;;;22.95;14.90;;;27.10;46.50;;;;;;4978342;28;20626;-85
2022/11/14 09:48:51;;;;;;;25.63;16.55;;;27.30;46.30;;;;;;4994518;28;20558;-90
2022/11/14 09:51:28;;;;;;;26.38;17.45;;;27.00;47.00;;;;;;4994339;28;20041;-86
2022/11/14 09:54:26;;;;;;;27.23;18.25;;;27.60;46.40;;;;;;4973927;28;20073;-93
2022/11/14 09:56:52;;;;;;;24.98;16.65;;;28.20;46.00;;;;;;4970654;28;20114;-89
2022/11/14 09:59:18;;;;;;;27.85;17.27;;;27.90;46.00;;;;;;4994340;28;20049;-88
2022/11/14 10:02:12;;;;;;;24.10;16.05;;;28.10;46.20;;;;;;4977212;28;20042;-84
2022/11/14 10:04:59;;;;;;;27.42;16.95;;;28.40;46.10;;;;;;4978336;28;20149;-83
2022/11/14 10:08:05;;;;;;;22.90;17.27;;;28.80;45.60;;;;;;4994446;28;20129;-85
2022/11/14 10:10:54;;;;;;;23.85;17.77;;;28.70;45.70;;;;;;4936366;29;20119;-85
2022/11/14 10:13:27;;;;;;;27.27;18.85;;;29.00;45.60;;;;;;4935847;29;20047;-86
2022/11/14 10:16:02;;;;;;;25.38;18.23;;;29.70;45.80;;;;;;4920002;29;20110;-84
2022/11/14 10:18:56;;;;;;;27.17;19.50;;;29.50;45.40;;;;;;4935895;29;20128;-84
2022/11/14 10:21:39;;;;;;;29.20;18.77;;;29.60;45.00;;;;;;4991432;28;20046;-93
2022/11/14 10:24:17;;;;;;;25.67;18.23;;;29.40;45.60;;;;;;4993391;28;20026;-91
2022/11/14 10:27:17;;;;;;;24.02;17.90;;;29.30;45.30;;;;;;4993881;28;20053;-89
2022/11/14 10:29:46;;;;;;;;;;;28.20;46.00;;;;;;4991830;28;20108;-84
2022/11/14 10:32:38;;;;;;;22.73;17.08;;;27.40;46.80;;;;;;4978551;28;19953;-86
2022/11/14 10:35:11;;;;;;;20.95;17.15;;;26.30;47.70;;;;;;4994124;28;20065;-87
2022/11/14 10:37:44;;;;;;;26.38;17.50;;;25.90;48.80;;;;;;4994506;28;20106;-94
2022/11/14 10:40:23;;;;;;;26.02;19.15;;;26.20;48.20;;;;;;4994434;28;20153;-85
2022/11/14 10:42:56;;;;;;;26.77;19.02;;;26.50;47.80;;;;;;4993605;28;20234;-91
2022/11/14 10:45:37;;;;;;;29.30;19.00;;;26.20;47.50;;;;;;5001902;28;20032;-86
2022/11/14 10:48:18;;;;;;;26.10;19.23;;;24.60;49.00;;;;;;5074015;28;20024;-83
2022/11/14 10:50:56;;;;;;;26.30;18.45;;;23.50;51.20;;;;;;5076613;28;20043;-83
2022/11/14 10:53:44;;;;;;;25.95;17.85;;;22.90;52.50;;;;;;5073768;28;20111;-83
2022/11/14 10:56:11;;;;;;;29.67;19.02;;;22.80;53.20;;;;;;5075249;28;20092;-89
2022/11/14 10:58:37;;;;;;;28.88;20.42;;;23.10;52.70;;;;;;5074610;28;20032;-88
2022/11/14 11:01:31;;;;;;;38.25;34.53;;;23.10;52.10;;;;;;5073813;28;20036;-90
2022/11/14 11:03:57;;;;;;;24.98;18.83;;;22.50;52.40;;;;;;5074056;28;20096;-89
2022/11/14 11:06:29;;;;;;;29.88;20.20;;;21.70;53.20;;;;;;5073651;28;20563;-90
2022/11/14 11:11:40;;;;;;;26.88;18.95;;;20.70;55.00;;;;;;5075300;28;20117;-87
2022/11/14 11:14:16;;;;;;;27.15;18.35;;;20.60;55.60;;;;;;5073965;28;20033;-82
2022/11/14 11:16:44;;;;;;;28.38;19.33;;;20.20;55.90;;;;;;5074423;28;20115;-83
2022/11/14 11:19:25;;;;;;;27.95;19.70;;;19.60;56.50;;;;;;5077578;28;20050;-84
2022/11/14 11:21:51;;;;;;;27.95;19.80;;;19.30;57.70;;;;;;5076168;28;20028;-90
2022/11/14 11:24:35;;;;;;;29.48;19.52;;;19.00;58.00;;;;;;5074895;28;20074;-82
2022/11/14 11:27:23;;;;;;;24.55;17.98;;;19.20;58.30;;;;;;5074270;28;20499;-87
2022/11/14 11:30:00;;;;;;;29.25;19.30;;;19.10;58.40;;;;;;5072574;28;20076;-86
2022/11/14 11:32:26;;;;;;;26.67;19.15;;;19.30;58.00;;;;;;5058438;28;20044;-96
2022/11/14 11:34:52;;;;;;;33.50;20.95;;;19.30;58.20;;;;;;5056851;28;20059;-96
2022/11/14 11:37:23;;;;;;;28.35;18.23;;;19.40;58.00;;;;;;5056885;28;20112;-84
2022/11/14 11:39:51;;;;;;;;;;;19.20;58.30;;;;;;5057324;28;20055;-86
2022/11/14 11:42:23;;;;;;;31.02;21.15;;;18.90;58.70;;;;;;5058165;28;19970;-86
2022/11/14 11:44:53;;;;;;;27.83;19.95;;;19.00;58.70;;;;;;5056696;28;20029;-94
2022/11/14 11:47:20;;;;;;;28.95;20.23;;;19.10;58.70;;;;;;5057281;28;20082;-84
2022/11/14 11:49:47;;;;;;;28.60;19.73;;;19.30;58.30;;;;;;5057703;28;20052;-87
2022/11/14 11:52:31;;;;;;;32.70;20.83;;;19.60;57.90;;;;;;5058642;28;20400;-84
2022/11/14 11:55:20;;;;;;;28.10;19.60;;;19.30;58.20;;;;;;5057307;28;20047;-87
2022/11/14 11:57:53;;;;;;;28.63;19.05;;;19.40;58.00;;;;;;5056337;28;20024;-86
2022/11/14 12:00:20;;;;;;;26.75;19.02;;;19.40;58.10;;;;;;5057595;28;20028;-82
2022/11/14 12:02:51;;;;;;;28.77;19.83;;;19.30;57.80;;;;;;5058267;28;20028;-91
2022/11/14 12:05:47;;;;;;;28.80;18.83;;;19.40;58.20;;;;;;5057698;28;20056;-83
2022/11/14 12:08:38;;;;;;;24.95;18.45;;;19.60;57.60;;;;;;5041782;28;20047;-82
2022/11/14 12:11:08;;;;;;;27.35;18.70;;;19.50;58.00;;;;;;5057728;28;20027;-85
2022/11/14 12:13:48;;;;;;;32.42;19.48;;;19.60;58.00;;;;;;5057133;28;20036;-85
2022/11/14 12:16:17;;;;;;;;;;;19.80;57.40;;;;;;5075300;28;20070;-89
2022/11/14 12:19:03;;;;;;;24.95;18.25;;;19.60;57.60;;;;;;5074574;28;19904;-87
2022/11/14 12:21:48;;;;;;;26.48;18.90;;;19.30;58.60;;;;;;5056201;28;20025;-88
2022/11/14 12:24:45;;;;;;;26.80;18.75;;;19.80;58.20;;;;;;5075226;28;20017;-88
2022/11/14 12:27:48;;;;;;;27.15;18.40;;;19.90;57.60;;;;;;5077850;28;20020;-82
2022/11/14 12:30:21;;;;;;;25.88;17.63;;;20.20;57.30;;;;;;5060841;28;20137;-83
2022/11/14 12:33:08;;;;;;;30.58;19.92;;;19.80;57.20;;;;;;5059142;28;20047;-86
2022/11/14 12:35:35;;;;;;;22.95;17.27;;;19.60;58.30;;;;;;5077948;28;20024;-94
2022/11/14 12:38:04;;;;;;;23.80;17.33;;;19.80;57.60;;;;;;5059954;28;20033;-87
2022/11/14 12:40:39;;;;;;;23.75;17.02;;;20.00;57.20;;;;;;5060002;28;20040;-82